createdAt,value
2023-04-13T00:00:35.317Z,99.90
2023-04-13T00:03:04.487Z,99.90
2023-04-13T00:05:34.305Z,99.90
2023-04-13T00:08:04.632Z,99.90
2023-04-13T00:10:36.271Z,99.90
2023-04-13T00:13:06.441Z,99.90
2023-04-13T00:15:36.780Z,99.90
2023-04-13T00:18:06.788Z,99.90
2023-04-13T00:20:35.086Z,99.90
2023-04-13T00:23:04.272Z,99.90
2023-04-13T00:25:33.045Z,99.90
2023-04-13T00:28:03.565Z,99.90
2023-04-13T00:30:33.757Z,99.90
2023-04-13T00:33:06.007Z,99.90
2023-04-13T00:35:34.940Z,99.90
2023-04-13T00:38:04.570Z,99.90
2023-04-13T00:40:33.195Z,99.90
2023-04-13T00:43:02.527Z,99.90
2023-04-13T00:45:31.173Z,99.90
2023-04-13T00:48:00.953Z,99.90
2023-04-13T00:50:29.228Z,99.90
2023-04-13T00:52:58.308Z,99.90
2023-04-13T00:55:27.746Z,99.90
2023-04-13T00:57:57.940Z,99.90
2023-04-13T01:00:27.067Z,99.90
2023-04-13T01:02:56.749Z,99.90
2023-04-13T01:05:29.679Z,99.90
2023-04-13T01:08:09.754Z,99.90
2023-04-13T01:10:44.271Z,99.90
2023-04-13T01:13:20.660Z,99.90
2023-04-13T01:16:03.934Z,99.90
2023-04-13T01:18:40.209Z,99.90
2023-04-13T01:21:14.416Z,99.90
2023-04-13T01:23:53.073Z,99.90
2023-04-13T01:26:22.721Z,99.90
2023-04-13T01:28:53.979Z,99.90
2023-04-13T01:31:22.640Z,99.90
2023-04-13T01:33:51.486Z,99.90
2023-04-13T01:36:21.003Z,99.90
2023-04-13T01:38:50.246Z,99.90
2023-04-13T01:41:19.874Z,99.90
2023-04-13T01:43:48.264Z,99.90
2023-04-13T01:46:23.703Z,99.90
2023-04-13T01:49:08.943Z,99.90
2023-04-13T01:51:58.678Z,99.90
2023-04-13T01:54:31.398Z,99.90
2023-04-13T01:57:02.265Z,99.90
2023-04-13T01:59:30.694Z,99.90
2023-04-13T02:02:00.432Z,99.90
2023-04-13T02:04:29.637Z,99.90
2023-04-13T02:06:58.874Z,99.90
2023-04-13T02:09:31.690Z,99.90
2023-04-13T02:11:59.978Z,99.90
2023-04-13T02:14:28.554Z,99.90
2023-04-13T02:16:57.024Z,99.90
2023-04-13T02:19:26.573Z,99.90
2023-04-13T02:21:55.547Z,99.90
2023-04-13T02:24:24.806Z,99.90
2023-04-13T02:26:53.046Z,99.90
2023-04-13T02:29:22.677Z,99.90
2023-04-13T02:31:53.514Z,99.90
2023-04-13T02:34:22.110Z,99.90
2023-04-13T02:36:51.798Z,99.90
2023-04-13T02:39:20.987Z,99.90
2023-04-13T02:41:50.313Z,99.90
2023-04-13T02:44:22.981Z,99.90
2023-04-13T02:46:56.649Z,99.90
2023-04-13T02:49:26.107Z,99.90
2023-04-13T02:52:01.710Z,99.90
2023-04-13T02:54:54.788Z,99.90
2023-04-13T02:57:29.729Z,99.90
2023-04-13T02:59:59.550Z,99.90
2023-04-13T03:02:37.825Z,99.90
2023-04-13T03:05:07.231Z,99.90
2023-04-13T03:07:37.813Z,99.90
2023-04-13T03:10:09.000Z,99.90
2023-04-13T03:12:37.662Z,99.90
2023-04-13T03:15:11.158Z,99.90
2023-04-13T03:17:41.555Z,99.90
2023-04-13T03:20:15.306Z,99.90
2023-04-13T03:22:53.677Z,99.90
2023-04-13T03:25:22.873Z,99.90
2023-04-13T03:27:51.716Z,99.90
2023-04-13T03:30:22.512Z,99.90
2023-04-13T03:32:56.734Z,99.90
2023-04-13T03:35:28.361Z,99.90
2023-04-13T03:38:00.547Z,99.90
2023-04-13T03:40:37.038Z,99.90
2023-04-13T03:43:05.497Z,99.90
2023-04-13T03:45:37.660Z,99.90
2023-04-13T03:48:11.010Z,99.90
2023-04-13T03:50:39.463Z,99.90
2023-04-13T03:53:10.769Z,99.90
2023-04-13T03:55:39.172Z,99.90
2023-04-13T03:58:09.032Z,99.90
2023-04-13T04:00:37.292Z,99.90
2023-04-13T04:03:19.186Z,99.90
2023-04-13T04:06:02.365Z,99.90
2023-04-13T04:08:33.337Z,99.90
2023-04-13T04:11:06.413Z,99.90
2023-04-13T04:13:35.584Z,99.90
2023-04-13T04:16:11.468Z,99.90
2023-04-13T04:18:45.602Z,99.90
2023-04-13T04:21:21.833Z,99.90
2023-04-13T04:23:52.992Z,99.90
2023-04-13T04:26:26.022Z,99.90
2023-04-13T04:29:02.315Z,99.90
2023-04-13T04:31:37.549Z,99.90
2023-04-13T04:34:11.685Z,99.90
2023-04-13T04:36:45.542Z,99.90
2023-04-13T04:39:21.996Z,99.90
2023-04-13T04:42:03.082Z,99.90
2023-04-13T04:44:32.693Z,99.90
2023-04-13T04:47:06.199Z,99.90
2023-04-13T04:49:41.572Z,99.90
2023-04-13T04:52:12.645Z,99.90
2023-04-13T04:54:43.349Z,99.90
2023-04-13T04:57:12.428Z,99.90
2023-04-13T04:59:41.843Z,99.90
2023-04-13T05:02:12.935Z,99.90
2023-04-13T05:04:42.029Z,99.90
2023-04-13T05:07:10.669Z,99.90
2023-04-13T05:09:42.213Z,99.90
2023-04-13T05:12:12.092Z,99.90
2023-04-13T05:14:43.098Z,99.90
2023-04-13T05:17:18.321Z,99.90
2023-04-13T05:19:47.014Z,99.90
2023-04-13T05:22:37.808Z,99.90
2023-04-13T05:25:09.556Z,99.90
2023-04-13T05:27:39.244Z,99.90
2023-04-13T05:30:09.668Z,99.90
2023-04-13T05:32:40.552Z,99.90
2023-04-13T05:35:11.564Z,99.90
2023-04-13T05:37:40.404Z,99.90
2023-04-13T05:40:15.120Z,99.90
2023-04-13T05:42:45.066Z,99.90
2023-04-13T05:45:17.211Z,99.90
2023-04-13T05:48:00.847Z,99.90
2023-04-13T05:50:29.543Z,99.90
2023-04-13T05:52:58.284Z,99.90
2023-04-13T05:55:29.816Z,99.90
2023-04-13T05:58:04.820Z,99.90
2023-04-13T06:00:34.548Z,99.90
2023-04-13T06:03:08.827Z,99.90
2023-04-13T06:05:37.471Z,99.90
2023-04-13T06:08:06.081Z,99.90
2023-04-13T06:10:34.261Z,99.90
2023-04-13T06:13:03.818Z,99.90
2023-04-13T06:15:32.388Z,99.90
2023-04-13T06:18:00.727Z,99.90
2023-04-13T06:20:29.177Z,99.90
2023-04-13T06:22:58.203Z,99.90
2023-04-13T06:25:27.184Z,99.90
2023-04-13T06:27:55.543Z,99.90
2023-04-13T06:30:25.625Z,99.90
2023-04-13T06:32:56.990Z,99.90
2023-04-13T06:35:27.654Z,99.90
2023-04-13T06:37:55.966Z,99.90
2023-04-13T06:40:33.435Z,99.90
2023-04-13T06:43:13.433Z,99.90
2023-04-13T06:45:59.767Z,99.90
2023-04-13T06:48:31.162Z,99.90
2023-04-13T06:51:01.942Z,99.90
2023-04-13T06:53:33.308Z,99.90
2023-04-13T06:56:01.794Z,99.90
2023-04-13T06:58:31.319Z,99.90
2023-04-13T07:01:01.190Z,99.90
2023-04-13T07:03:32.775Z,99.90
2023-04-13T07:06:01.517Z,99.90
2023-04-13T07:08:29.951Z,99.90
2023-04-13T07:10:58.732Z,99.90
2023-04-13T07:13:34.645Z,99.90
2023-04-13T07:16:05.414Z,99.90
2023-04-13T07:18:37.208Z,99.90
2023-04-13T07:21:06.165Z,99.90
2023-04-13T07:23:46.053Z,99.90
2023-04-13T07:26:15.889Z,99.90
2023-04-13T07:28:44.437Z,99.90
2023-04-13T07:31:16.221Z,99.90
2023-04-13T07:33:48.236Z,99.90
2023-04-13T07:36:20.469Z,99.90
2023-04-13T07:38:52.543Z,99.90
2023-04-13T07:41:22.834Z,99.90
2023-04-13T07:43:54.979Z,99.90
2023-04-13T07:46:27.321Z,99.90
2023-04-13T07:48:57.322Z,99.90
2023-04-13T07:51:32.299Z,99.90
2023-04-13T07:54:01.048Z,99.90
2023-04-13T07:56:31.806Z,99.90
2023-04-13T07:59:02.157Z,99.90
2023-04-13T08:01:33.010Z,99.90
2023-04-13T08:04:03.830Z,99.90
2023-04-13T08:06:33.362Z,99.90
2023-04-13T08:09:02.829Z,99.90
2023-04-13T08:11:32.713Z,99.90
2023-04-13T08:14:07.184Z,99.90
2023-04-13T08:16:37.099Z,99.90
2023-04-13T08:19:08.819Z,99.90
2023-04-13T08:21:42.713Z,99.90
2023-04-13T08:24:11.487Z,99.90
2023-04-13T08:26:41.108Z,99.90
2023-04-13T08:29:10.457Z,99.90
2023-04-13T08:31:40.783Z,99.90
2023-04-13T08:34:12.820Z,99.90
2023-04-13T08:36:41.488Z,99.90
2023-04-13T08:39:12.524Z,99.90
2023-04-13T08:41:47.068Z,99.90
2023-04-13T08:44:17.599Z,99.90
2023-04-13T08:46:52.553Z,99.90
2023-04-13T08:49:28.291Z,99.90
2023-04-13T08:52:19.604Z,99.90
2023-04-13T08:54:55.169Z,99.90
2023-04-13T08:57:27.844Z,99.90
2023-04-13T08:59:58.180Z,99.90
2023-04-13T09:02:33.895Z,99.90
2023-04-13T09:05:16.706Z,99.90
2023-04-13T09:07:53.894Z,99.90
2023-04-13T09:10:24.037Z,99.90
2023-04-13T09:12:52.661Z,99.90
2023-04-13T09:15:21.181Z,99.90
2023-04-13T09:18:07.920Z,99.90
2023-04-13T09:20:39.764Z,99.90
2023-04-13T09:23:17.842Z,99.90
2023-04-13T09:25:47.158Z,99.90
2023-04-13T09:28:19.684Z,99.90
2023-04-13T09:30:48.545Z,99.90
2023-04-13T09:33:18.812Z,99.90
2023-04-13T09:35:47.159Z,99.90
2023-04-13T09:38:17.206Z,99.90
2023-04-13T09:40:54.466Z,99.90
2023-04-13T09:43:23.432Z,99.90
2023-04-13T09:45:52.417Z,99.90
2023-04-13T09:48:23.573Z,99.90
2023-04-13T09:51:01.820Z,99.90
2023-04-13T09:53:42.605Z,99.90
2023-04-13T09:56:11.150Z,99.90
2023-04-13T09:58:44.734Z,99.90
2023-04-13T10:01:13.360Z,99.90
2023-04-13T10:03:44.551Z,99.90
2023-04-13T10:06:12.991Z,99.90
2023-04-13T10:08:42.000Z,99.90
2023-04-13T10:11:14.621Z,99.90
2023-04-13T10:13:49.340Z,99.90
2023-04-13T10:16:32.722Z,99.90
2023-04-13T10:19:06.446Z,99.90
2023-04-13T10:21:39.516Z,99.90
2023-04-13T10:24:12.168Z,99.90
2023-04-13T10:26:42.098Z,99.90
2023-04-13T10:29:11.701Z,99.90
2023-04-13T10:31:41.423Z,99.90
2023-04-13T10:34:11.717Z,99.90
2023-04-13T10:36:41.870Z,99.90
2023-04-13T10:39:10.660Z,99.90
2023-04-13T10:41:39.336Z,99.90
2023-04-13T10:44:08.991Z,99.90
2023-04-13T10:46:37.631Z,99.90
2023-04-13T10:49:06.792Z,99.90
2023-04-13T10:51:44.044Z,99.90
2023-04-13T10:54:14.273Z,99.90
2023-04-13T10:56:42.528Z,99.90
2023-04-13T10:59:10.785Z,99.90
2023-04-13T11:01:41.272Z,99.90
2023-04-13T11:04:14.058Z,99.90
2023-04-13T11:06:46.928Z,99.90
2023-04-13T11:09:17.227Z,99.90
2023-04-13T11:11:52.686Z,99.90
2023-04-13T11:14:24.453Z,99.90
2023-04-13T11:16:58.478Z,99.90
2023-04-13T11:19:26.947Z,99.90
2023-04-13T11:21:58.135Z,99.90
2023-04-13T11:24:28.285Z,99.90
2023-04-13T11:26:57.711Z,99.90
2023-04-13T11:29:25.969Z,99.90
2023-04-13T11:31:54.374Z,99.90
2023-04-13T11:34:28.965Z,99.90
2023-04-13T11:37:05.844Z,99.90
2023-04-13T11:39:36.410Z,99.90
2023-04-13T11:42:08.136Z,99.90
2023-04-13T11:44:37.292Z,99.90
2023-04-13T11:47:06.558Z,99.90
2023-04-13T11:49:35.144Z,99.90
2023-04-13T11:52:05.152Z,99.90
2023-04-13T11:54:33.810Z,99.90
2023-04-13T11:57:02.483Z,99.90
2023-04-13T11:59:30.807Z,99.90
2023-04-13T12:02:03.835Z,99.90
2023-04-13T12:04:41.072Z,99.90
2023-04-13T12:07:15.173Z,99.90
2023-04-13T12:09:56.058Z,99.90
2023-04-13T12:20:04.777Z,99.90
2023-04-13T12:22:51.719Z,99.90
2023-04-13T12:25:25.800Z,99.90
2023-04-13T12:27:54.978Z,99.90
2023-04-13T12:30:24.540Z,99.90
2023-04-13T12:32:53.794Z,99.90
2023-04-13T12:35:22.372Z,99.90
2023-04-13T12:37:52.597Z,99.90
2023-04-13T12:40:21.344Z,99.90
2023-04-13T12:42:50.577Z,99.90
2023-04-13T12:45:18.963Z,99.90
2023-04-13T12:47:47.308Z,99.90
2023-04-13T12:50:15.740Z,99.90
2023-04-13T12:52:45.249Z,99.90
2023-04-13T12:55:15.091Z,99.90
2023-04-13T12:57:43.375Z,99.90
2023-04-13T13:00:12.852Z,99.90
2023-04-13T13:02:41.457Z,99.90
2023-04-13T13:05:10.676Z,99.90
2023-04-13T13:07:39.079Z,99.90
2023-04-13T13:10:25.818Z,99.90
2023-04-13T13:12:58.235Z,99.90
2023-04-13T13:15:26.604Z,99.90
2023-04-13T13:17:54.885Z,99.90
2023-04-13T13:20:23.432Z,99.90
2023-04-13T13:22:51.664Z,99.90
2023-04-13T13:25:20.039Z,99.90
2023-04-13T13:30:21.154Z,99.90
2023-04-13T13:32:49.443Z,99.70
2023-04-13T13:35:17.745Z,99.90
2023-04-13T13:37:46.045Z,99.90
2023-04-13T13:40:14.648Z,99.90
2023-04-13T13:42:51.804Z,98.90
2023-04-13T13:45:22.815Z,97.00
2023-04-13T13:47:55.149Z,88.70
2023-04-13T13:50:47.336Z,86.90
2023-04-13T13:53:16.045Z,83.80
2023-04-13T13:55:44.293Z,73.80
2023-04-13T13:58:12.716Z,66.00
2023-04-13T14:00:42.512Z,65.60
2023-04-13T14:03:11.833Z,67.20
2023-04-13T14:05:40.188Z,70.40
2023-04-13T14:08:08.891Z,73.40
2023-04-13T14:10:37.363Z,71.00
2023-04-13T14:13:06.268Z,69.80
2023-04-13T14:15:34.679Z,69.40
2023-04-13T14:18:11.056Z,68.30
2023-04-13T14:20:40.597Z,66.30
2023-04-13T14:23:10.106Z,64.40
2023-04-13T14:25:41.426Z,62.10
2023-04-13T14:28:11.684Z,59.50
2023-04-13T14:30:40.543Z,53.40
2023-04-13T14:33:10.510Z,52.30
2023-04-13T14:35:40.458Z,51.20
2023-04-13T14:38:09.790Z,52.10
2023-04-13T14:40:38.080Z,52.40
2023-04-13T14:43:06.772Z,52.80
2023-04-13T14:45:35.194Z,53.70
2023-04-13T14:48:03.705Z,55.40
2023-04-13T14:50:33.485Z,55.20
2023-04-13T14:53:04.559Z,55.80
2023-04-13T14:55:32.815Z,55.40
2023-04-13T14:58:01.689Z,56.60
2023-04-13T15:00:39.651Z,55.20
2023-04-13T15:03:09.004Z,50.40
2023-04-13T15:05:39.581Z,48.70
2023-04-13T15:08:08.933Z,45.90
2023-04-13T15:10:37.257Z,45.40
2023-04-13T15:13:07.224Z,46.40
2023-04-13T15:15:37.813Z,48.50
2023-04-13T15:18:06.524Z,48.70
2023-04-13T15:20:35.172Z,47.70
2023-04-13T15:23:04.856Z,48.70
2023-04-13T15:25:33.263Z,46.30
2023-04-13T15:28:01.676Z,44.00
2023-04-13T15:30:31.106Z,43.10
2023-04-13T15:33:02.208Z,40.80
2023-04-13T15:35:31.535Z,41.20
2023-04-13T15:38:02.365Z,42.00
2023-04-13T15:40:34.310Z,40.80
2023-04-13T15:43:02.893Z,40.80
2023-04-13T15:45:31.496Z,41.20
2023-04-13T15:48:00.074Z,40.30
2023-04-13T15:50:28.586Z,40.50
2023-04-13T15:52:57.153Z,41.80
2023-04-13T15:55:25.657Z,43.00
2023-04-13T15:57:57.183Z,44.90
2023-04-13T16:00:26.217Z,44.70
2023-04-13T16:02:54.786Z,44.70
2023-04-13T16:05:23.530Z,45.20
2023-04-13T16:07:52.718Z,45.80
2023-04-13T16:10:21.366Z,46.50
2023-04-13T16:12:50.086Z,46.80
2023-04-13T16:15:20.389Z,47.60
2023-04-13T16:17:48.731Z,48.80
2023-04-13T16:20:21.267Z,49.40
2023-04-13T16:22:53.243Z,49.40
2023-04-13T16:25:21.914Z,49.20
2023-04-13T16:27:50.641Z,49.60
2023-04-13T16:30:21.546Z,50.10
2023-04-13T16:32:51.067Z,49.90
2023-04-13T16:35:19.710Z,49.50
2023-04-13T16:37:48.135Z,49.40
2023-04-13T16:40:16.973Z,49.50
2023-04-13T16:42:46.119Z,49.50
2023-04-13T16:45:15.516Z,48.80
2023-04-13T16:47:45.538Z,47.90
2023-04-13T16:50:13.911Z,47.80
2023-04-13T16:52:42.375Z,47.80
2023-04-13T16:55:14.130Z,47.90
2023-04-13T16:57:43.773Z,47.90
2023-04-13T17:00:14.803Z,48.20
2023-04-13T17:02:45.455Z,48.40
2023-04-13T17:05:14.340Z,49.80
2023-04-13T17:07:44.299Z,51.10
2023-04-13T17:10:14.317Z,52.10
2023-04-13T17:12:42.917Z,52.70
2023-04-13T17:15:12.205Z,53.30
2023-04-13T17:17:40.859Z,54.40
2023-04-13T17:20:11.591Z,55.10
2023-04-13T17:22:40.076Z,55.10
2023-04-13T17:25:09.462Z,55.70
2023-04-13T17:27:37.956Z,56.40
2023-04-13T17:30:08.360Z,56.80
2023-04-13T17:32:36.830Z,57.60
2023-04-13T17:35:06.103Z,58.70
2023-04-13T17:37:35.861Z,60.10
2023-04-13T17:40:04.327Z,61.90
2023-04-13T17:42:32.822Z,62.60
2023-04-13T17:45:02.542Z,63.20
2023-04-13T17:47:31.946Z,64.60
2023-04-13T17:50:00.200Z,65.80
2023-04-13T17:52:28.566Z,66.60
2023-04-13T17:54:58.213Z,67.60
2023-04-13T17:57:26.567Z,67.80
2023-04-13T17:59:55.431Z,69.50
2023-04-13T18:02:23.927Z,70.20
2023-04-13T18:04:52.381Z,70.90
2023-04-13T18:07:21.833Z,71.30
2023-04-13T18:09:50.279Z,72.50
2023-04-13T18:12:20.044Z,73.00
2023-04-13T18:14:48.344Z,74.20
2023-04-13T18:17:16.818Z,75.70
2023-04-13T18:19:45.120Z,77.00
2023-04-13T18:22:15.103Z,77.30
2023-04-13T18:24:43.569Z,78.20
2023-04-13T18:27:12.338Z,78.70
2023-04-13T18:29:41.905Z,79.80
2023-04-13T18:32:10.236Z,81.00
2023-04-13T18:34:40.087Z,82.00
2023-04-13T18:37:08.308Z,84.30
2023-04-13T18:39:36.610Z,87.60
2023-04-13T18:42:05.050Z,88.30
2023-04-13T18:44:33.368Z,88.50
2023-04-13T18:47:03.239Z,89.70
2023-04-13T18:49:31.530Z,90.00
2023-04-13T18:51:59.738Z,90.40
2023-04-13T18:54:29.401Z,91.00
2023-04-13T18:56:57.774Z,91.80
2023-04-13T18:59:26.215Z,92.60
2023-04-13T19:01:54.686Z,93.10
2023-04-13T19:04:24.626Z,94.50
2023-04-13T19:06:52.935Z,95.40
2023-04-13T19:09:21.360Z,95.70
2023-04-13T19:11:53.450Z,96.60
2023-04-13T19:14:21.786Z,97.90
2023-04-13T19:16:52.830Z,98.90
2023-04-13T19:19:21.393Z,99.90
2023-04-13T19:21:53.571Z,99.90
2023-04-13T19:24:22.144Z,99.90
2023-04-13T19:26:50.721Z,99.90
2023-04-13T19:29:20.990Z,99.90
2023-04-13T19:31:49.960Z,99.90
2023-04-13T19:34:18.370Z,99.90
2023-04-13T19:36:46.740Z,99.90
2023-04-13T19:39:16.578Z,99.90
2023-04-13T19:41:45.105Z,99.90
2023-04-13T19:44:15.958Z,99.90
2023-04-13T19:46:44.614Z,99.90
2023-04-13T19:49:13.609Z,99.90
2023-04-13T19:51:42.274Z,99.90
2023-04-13T19:54:10.781Z,99.90
2023-04-13T19:56:40.811Z,99.90
2023-04-13T19:59:09.475Z,99.90
2023-04-13T20:01:37.919Z,99.90
2023-04-13T20:04:06.469Z,99.90
2023-04-13T20:06:35.960Z,99.90
2023-04-13T20:09:11.959Z,99.90
2023-04-13T20:11:42.158Z,99.90
2023-04-13T20:14:11.395Z,99.90
2023-04-13T20:16:39.866Z,99.90
2023-04-13T20:19:09.366Z,99.90
2023-04-13T20:21:38.574Z,99.90
2023-04-13T20:24:07.284Z,99.90
2023-04-13T20:26:36.157Z,99.90
2023-04-13T20:29:07.742Z,99.90
2023-04-13T20:31:36.942Z,99.90
2023-04-13T20:34:07.533Z,99.90
2023-04-13T20:36:35.824Z,99.90
2023-04-13T20:39:04.337Z,99.90
2023-04-13T20:41:33.743Z,99.90
2023-04-13T20:44:02.495Z,99.90
2023-04-13T20:46:35.716Z,99.90
2023-04-13T20:49:05.413Z,99.90
2023-04-13T20:51:34.088Z,99.90
2023-04-13T20:54:05.649Z,99.90
2023-04-13T20:56:34.354Z,99.90
2023-04-13T20:59:03.491Z,99.90
2023-04-13T21:01:33.036Z,99.90
2023-04-13T21:04:01.733Z,99.90
2023-04-13T21:06:30.197Z,99.90
2023-04-13T21:08:59.031Z,99.90
2023-04-13T21:11:28.615Z,99.90
2023-04-13T21:13:56.842Z,99.90
2023-04-13T21:16:26.563Z,99.90
2023-04-13T21:18:57.109Z,99.90
2023-04-13T21:21:27.724Z,99.90
2023-04-13T21:23:56.238Z,99.90
2023-04-13T21:26:24.515Z,99.90
2023-04-13T21:28:52.782Z,99.90
2023-04-13T21:31:21.195Z,99.90
2023-04-13T21:33:49.689Z,99.90
2023-04-13T21:38:50.761Z,99.90
2023-04-13T21:41:20.785Z,99.90
2023-04-13T21:43:49.040Z,99.90
2023-04-13T21:46:17.746Z,99.90
2023-04-13T21:48:46.161Z,99.90
2023-04-13T21:51:14.351Z,99.90
2023-04-13T21:53:43.962Z,99.90
2023-04-13T21:56:12.190Z,99.90
2023-04-13T21:58:41.995Z,99.90
2023-04-13T22:01:11.061Z,99.90
2023-04-13T22:03:41.228Z,99.90
2023-04-13T22:06:11.802Z,99.90
2023-04-13T22:08:41.072Z,99.90
2023-04-13T22:11:10.910Z,99.90
2023-04-13T22:13:40.984Z,99.90
2023-04-13T22:16:09.742Z,99.90
2023-04-13T22:18:38.127Z,99.90
2023-04-13T22:21:07.030Z,99.90
2023-04-13T22:23:35.415Z,99.90
2023-04-13T22:26:03.648Z,99.90
2023-04-13T22:28:33.331Z,99.90
2023-04-13T22:31:08.022Z,99.90
2023-04-13T22:33:37.082Z,99.90
2023-04-13T22:36:06.037Z,99.90
2023-04-13T22:38:34.525Z,99.90
2023-04-13T22:41:07.807Z,99.90
2023-04-13T22:43:38.149Z,99.90
2023-04-13T22:46:06.614Z,99.90
2023-04-13T22:48:35.087Z,99.90
2023-04-13T22:51:03.586Z,99.90
2023-04-13T22:53:32.146Z,99.90
2023-04-13T22:56:00.752Z,99.90
2023-04-13T22:58:29.613Z,99.90
2023-04-13T23:01:00.102Z,99.90
2023-04-13T23:03:28.531Z,99.90
2023-04-13T23:05:57.129Z,99.90
2023-04-13T23:08:25.366Z,99.90
2023-04-13T23:10:53.775Z,99.90
2023-04-13T23:13:22.101Z,99.90
2023-04-13T23:15:50.472Z,99.90
2023-04-13T23:18:20.226Z,99.90
2023-04-13T23:20:48.499Z,99.90
2023-04-13T23:23:16.696Z,99.90
2023-04-13T23:25:45.011Z,99.90
2023-04-13T23:28:13.202Z,99.90
2023-04-13T23:30:41.373Z,99.90
2023-04-13T23:33:09.624Z,99.90
2023-04-13T23:35:39.197Z,99.90
2023-04-13T23:38:07.393Z,99.90
2023-04-13T23:40:36.069Z,99.90
2023-04-13T23:43:04.254Z,99.90
2023-04-13T23:45:32.530Z,99.90
2023-04-13T23:48:00.887Z,99.90
2023-04-13T23:50:29.029Z,99.90
2023-04-13T23:52:59.765Z,99.90
2023-04-13T23:55:28.874Z,99.90
2023-04-13T23:57:57.021Z,99.90
